createdAt,value
2023-03-26T00:01:41.645Z,100.00
2023-03-26T00:04:09.178Z,100.00
2023-03-26T00:06:39.978Z,100.00
2023-03-26T00:09:13.447Z,100.00
2023-03-26T00:11:41.688Z,100.00
2023-03-26T00:14:14.017Z,100.00
2023-03-26T00:16:47.615Z,100.00
2023-03-26T00:19:16.965Z,98.97
2023-03-26T00:21:44.657Z,99.07
2023-03-26T00:24:16.186Z,98.34
2023-03-26T00:26:44.848Z,100.00
2023-03-26T00:29:14.003Z,100.00
2023-03-26T00:31:46.523Z,100.00
2023-03-26T00:34:15.887Z,100.00
2023-03-26T00:36:44.072Z,100.00
2023-03-26T00:39:11.680Z,98.84
2023-03-26T00:41:43.263Z,89.88
2023-03-26T00:44:11.584Z,91.43
2023-03-26T00:46:39.316Z,97.42
2023-03-26T00:49:10.941Z,100.00
2023-03-26T00:51:39.351Z,100.00
2023-03-26T00:54:08.579Z,100.00
2023-03-26T00:56:37.088Z,100.00
2023-03-26T00:59:05.179Z,100.00
2023-03-26T01:01:32.965Z,100.00
2023-03-26T01:04:31.296Z,100.00
2023-03-26T01:07:04.220Z,100.00
2023-03-26T01:09:37.610Z,100.00
2023-03-26T01:12:08.216Z,100.00
2023-03-26T01:14:38.814Z,100.00
2023-03-26T01:17:09.275Z,100.00
2023-03-26T01:20:13.244Z,100.00
2023-03-26T01:22:49.785Z,100.00
2023-03-26T01:25:17.986Z,100.00
2023-03-26T01:27:47.416Z,100.00
2023-03-26T01:30:43.326Z,100.00
2023-03-26T01:33:37.072Z,100.00
2023-03-26T01:36:30.786Z,100.00
2023-03-26T01:39:08.075Z,100.00
2023-03-26T01:41:58.615Z,100.00
2023-03-26T01:44:42.887Z,100.00
2023-03-26T01:47:11.539Z,100.00
2023-03-26T01:49:39.028Z,100.00
2023-03-26T01:52:15.050Z,100.00
2023-03-26T01:54:43.065Z,100.00
2023-03-26T01:57:42.210Z,99.97
2023-03-26T02:00:24.639Z,98.55
2023-03-26T02:03:33.510Z,100.00
2023-03-26T02:06:23.717Z,99.99
2023-03-26T02:09:04.430Z,100.00
2023-03-26T02:11:35.309Z,100.00
2023-03-26T02:14:06.707Z,100.00
2023-03-26T02:16:34.291Z,100.00
2023-03-26T02:19:02.381Z,100.00
2023-03-26T02:21:33.970Z,100.00
2023-03-26T02:24:04.506Z,100.00
2023-03-26T02:26:37.784Z,100.00
2023-03-26T02:29:14.993Z,100.00
2023-03-26T02:31:44.972Z,100.00
2023-03-26T02:34:12.709Z,100.00
2023-03-26T02:36:47.258Z,100.00
2023-03-26T02:39:14.904Z,99.54
2023-03-26T02:41:48.741Z,99.27
2023-03-26T02:44:16.295Z,100.00
2023-03-26T02:46:59.044Z,100.00
2023-03-26T02:49:45.377Z,100.00
2023-03-26T02:52:19.142Z,99.60
2023-03-26T02:54:50.932Z,98.76
2023-03-26T02:57:21.199Z,97.63
2023-03-26T03:00:14.784Z,94.16
2023-03-26T03:02:49.042Z,95.33
2023-03-26T03:05:43.072Z,96.77
2023-03-26T03:08:38.088Z,98.72
2023-03-26T03:11:22.236Z,96.63
2023-03-26T03:13:52.370Z,95.68
2023-03-26T03:16:23.644Z,95.67
2023-03-26T03:18:57.816Z,95.53
2023-03-26T03:21:31.555Z,94.77
2023-03-26T03:24:00.129Z,94.60
2023-03-26T03:26:30.587Z,90.85
2023-03-26T03:29:03.457Z,91.09
2023-03-26T03:31:31.115Z,90.88
2023-03-26T03:34:03.700Z,91.11
2023-03-26T03:36:38.461Z,92.67
2023-03-26T03:39:14.956Z,91.48
2023-03-26T03:41:43.001Z,93.15
2023-03-26T03:44:14.234Z,92.98
2023-03-26T03:46:41.842Z,92.33
2023-03-26T03:49:09.300Z,93.09
2023-03-26T03:51:38.481Z,93.00
2023-03-26T03:54:15.187Z,92.32
2023-03-26T03:56:47.308Z,94.30
2023-03-26T03:59:15.528Z,93.42
2023-03-26T04:01:46.750Z,92.13
2023-03-26T04:04:24.798Z,91.78
2023-03-26T04:06:58.356Z,90.10
2023-03-26T04:09:30.783Z,90.40
2023-03-26T04:12:02.716Z,89.10
2023-03-26T04:14:39.267Z,90.16
2023-03-26T04:17:16.159Z,89.85
2023-03-26T04:19:45.675Z,89.92
2023-03-26T04:22:15.098Z,91.10
2023-03-26T04:24:54.760Z,93.04
2023-03-26T04:27:32.103Z,91.02
2023-03-26T04:30:23.283Z,91.44
2023-03-26T04:33:06.512Z,91.70
2023-03-26T04:35:41.698Z,91.63
2023-03-26T04:38:12.335Z,90.43
2023-03-26T04:40:47.699Z,91.03
2023-03-26T04:43:42.414Z,92.04
2023-03-26T04:46:21.947Z,89.82
2023-03-26T04:48:55.693Z,88.80
2023-03-26T04:51:30.355Z,87.53
2023-03-26T04:54:02.528Z,86.74
2023-03-26T04:57:08.272Z,84.58
2023-03-26T04:59:58.709Z,84.87
2023-03-26T05:02:26.687Z,84.56
2023-03-26T05:04:57.273Z,83.75
2023-03-26T05:07:28.453Z,83.74
2023-03-26T05:10:03.430Z,83.40
2023-03-26T05:12:53.014Z,83.21
2023-03-26T05:15:30.382Z,83.51
2023-03-26T05:17:58.097Z,83.63
2023-03-26T05:20:39.265Z,82.55
2023-03-26T05:23:09.010Z,83.14
2023-03-26T05:25:38.973Z,83.08
2023-03-26T05:28:14.153Z,82.34
2023-03-26T05:30:54.428Z,81.65
2023-03-26T05:33:24.542Z,82.12
2023-03-26T05:36:13.119Z,81.48
2023-03-26T05:38:47.689Z,83.09
2023-03-26T05:41:19.808Z,83.10
2023-03-26T05:43:49.083Z,83.03
2023-03-26T05:46:22.958Z,83.62
2023-03-26T05:48:52.087Z,84.17
2023-03-26T05:51:20.629Z,84.23
2023-03-26T05:53:56.853Z,81.53
2023-03-26T05:56:33.441Z,82.93
2023-03-26T05:59:19.569Z,83.85
2023-03-26T06:02:05.459Z,84.63
2023-03-26T06:04:53.213Z,82.33
2023-03-26T06:07:49.262Z,82.92
2023-03-26T06:10:19.525Z,81.78
2023-03-26T06:12:47.657Z,79.04
2023-03-26T06:15:15.624Z,78.71
2023-03-26T06:17:58.594Z,78.75
2023-03-26T06:20:51.606Z,77.55
2023-03-26T06:23:29.627Z,76.81
2023-03-26T06:26:07.898Z,74.91
2023-03-26T06:29:04.378Z,71.20
2023-03-26T06:32:06.169Z,70.20
2023-03-26T06:34:45.319Z,70.14
2023-03-26T06:37:13.489Z,68.30
2023-03-26T06:39:42.092Z,66.22
2023-03-26T06:43:06.474Z,64.93
2023-03-26T06:45:42.152Z,65.87
2023-03-26T06:48:42.792Z,64.43
2023-03-26T06:51:13.967Z,63.70
2023-03-26T06:54:14.100Z,63.86
2023-03-26T06:57:04.345Z,61.93
2023-03-26T07:00:08.684Z,59.96
2023-03-26T07:05:48.291Z,57.15
2023-03-26T07:08:34.550Z,57.58
2023-03-26T07:11:22.425Z,56.27
2023-03-26T07:14:10.230Z,56.65
2023-03-26T07:16:49.628Z,54.96
2023-03-26T07:19:46.101Z,53.91
2023-03-26T07:22:22.725Z,55.25
2023-03-26T07:25:07.019Z,54.36
2023-03-26T07:28:13.282Z,52.64
2023-03-26T07:31:27.167Z,52.32
2023-03-26T07:38:31.391Z,50.59
2023-03-26T07:41:46.519Z,49.22
2023-03-26T07:51:07.131Z,47.50
2023-03-26T08:20:58.413Z,44.05
2023-03-26T08:26:59.779Z,43.36
2023-03-26T08:30:05.257Z,42.52
2023-03-26T08:32:33.202Z,42.40
2023-03-26T08:35:01.219Z,42.62
2023-03-26T08:37:29.287Z,43.46
2023-03-26T08:39:57.156Z,42.50
2023-03-26T08:43:28.646Z,41.98
2023-03-26T08:46:10.386Z,40.99
2023-03-26T08:49:33.432Z,41.45
2023-03-26T08:52:50.478Z,40.59
2023-03-26T08:55:47.121Z,40.47
2023-03-26T08:58:25.613Z,40.01
2023-03-26T09:00:56.235Z,38.45
2023-03-26T09:03:50.600Z,39.10
2023-03-26T09:07:01.705Z,38.36
2023-03-26T09:09:56.800Z,37.48
2023-03-26T09:12:55.752Z,37.08
2023-03-26T09:16:15.602Z,37.40
2023-03-26T09:19:10.520Z,36.91
2023-03-26T09:22:38.520Z,35.75
2023-03-26T09:26:02.083Z,36.37
2023-03-26T09:28:36.476Z,37.12
2023-03-26T09:31:25.401Z,37.71
2023-03-26T09:34:31.496Z,37.96
2023-03-26T09:37:29.275Z,36.84
2023-03-26T09:40:29.462Z,35.54
2023-03-26T09:43:20.889Z,35.75
2023-03-26T09:46:07.467Z,34.56
2023-03-26T09:49:21.032Z,35.53
2023-03-26T09:51:51.911Z,33.77
2023-03-26T09:55:02.376Z,31.99
2023-03-26T09:58:02.458Z,29.46
2023-03-26T10:00:53.197Z,29.47
2023-03-26T10:03:59.079Z,30.81
2023-03-26T10:06:41.845Z,29.50
2023-03-26T10:09:48.350Z,29.71
2023-03-26T10:12:37.427Z,28.41
2023-03-26T10:15:57.258Z,28.57
2023-03-26T10:18:56.416Z,28.67
2023-03-26T10:21:36.810Z,27.41
2023-03-26T10:24:28.959Z,28.60
2023-03-26T10:27:08.442Z,29.88
2023-03-26T10:30:10.665Z,28.87
2023-03-26T10:33:07.281Z,29.20
2023-03-26T10:35:56.408Z,27.68
2023-03-26T10:38:51.292Z,29.46
2023-03-26T10:41:59.597Z,29.73
2023-03-26T10:45:07.706Z,29.07
2023-03-26T10:47:59.555Z,27.32
2023-03-26T10:51:19.267Z,27.73
2023-03-26T10:53:58.948Z,29.35
2023-03-26T10:56:45.380Z,27.66
2023-03-26T10:59:16.378Z,26.15
2023-03-26T11:02:30.028Z,26.52
2023-03-26T11:05:16.886Z,25.98
2023-03-26T11:08:36.664Z,24.84
2023-03-26T11:11:19.930Z,25.03
2023-03-26T11:14:36.332Z,24.42
2023-03-26T11:17:44.162Z,24.46
2023-03-26T11:20:37.971Z,24.49
2023-03-26T11:23:37.278Z,25.10
2023-03-26T11:26:13.589Z,24.43
2023-03-26T11:29:40.905Z,25.27
2023-03-26T11:32:46.962Z,24.82
2023-03-26T11:35:51.587Z,24.78
2023-03-26T11:47:31.807Z,23.15
2023-03-26T11:50:02.388Z,24.00
2023-03-26T11:52:29.917Z,23.88
2023-03-26T11:54:58.592Z,23.09
2023-03-26T11:57:33.659Z,24.25
2023-03-26T12:00:17.994Z,23.62
2023-03-26T12:02:47.853Z,23.90
2023-03-26T12:05:27.611Z,22.06
2023-03-26T12:08:11.318Z,22.57
2023-03-26T12:11:03.303Z,21.26
2023-03-26T12:13:55.571Z,21.82
2023-03-26T12:16:23.432Z,22.20
2023-03-26T12:19:19.713Z,21.98
2023-03-26T12:21:53.362Z,21.54
2023-03-26T12:24:36.114Z,21.19
2023-03-26T12:27:25.765Z,22.48
2023-03-26T12:30:00.305Z,22.74
2023-03-26T12:32:45.223Z,23.01
2023-03-26T12:35:25.715Z,21.20
2023-03-26T12:37:54.746Z,20.92
2023-03-26T12:40:36.760Z,21.94
2023-03-26T12:44:54.243Z,21.43
2023-03-26T12:47:55.628Z,20.78
2023-03-26T12:49:23.061Z,20.07
2023-03-26T12:51:58.879Z,20.74
2023-03-26T12:54:48.475Z,19.71
2023-03-26T12:57:26.607Z,21.03
2023-03-26T13:00:09.908Z,20.42
2023-03-26T13:02:46.583Z,20.39
2023-03-26T13:05:22.755Z,20.54
2023-03-26T13:08:07.024Z,20.80
2023-03-26T13:11:11.603Z,20.91
2023-03-26T13:14:15.937Z,21.28
2023-03-26T13:16:52.610Z,21.94
2023-03-26T13:19:53.694Z,21.61
2023-03-26T13:22:49.164Z,22.16
2023-03-26T13:25:44.635Z,21.48
2023-03-26T13:28:37.615Z,21.91
2023-03-26T13:31:39.208Z,20.04
2023-03-26T13:34:49.393Z,20.02
2023-03-26T13:37:32.979Z,19.57
2023-03-26T13:40:37.935Z,18.64
2023-03-26T13:43:15.509Z,19.83
2023-03-26T13:46:05.468Z,18.69
2023-03-26T13:48:43.217Z,19.50
2023-03-26T13:51:37.978Z,19.57
2023-03-26T13:54:27.147Z,21.14
2023-03-26T13:57:25.664Z,20.22
2023-03-26T14:00:18.296Z,19.12
2023-03-26T14:03:02.175Z,17.17
2023-03-26T14:05:44.442Z,17.87
2023-03-26T14:08:23.622Z,17.99
2023-03-26T14:11:21.599Z,16.78
2023-03-26T14:14:23.684Z,16.00
2023-03-26T14:17:27.341Z,15.45
2023-03-26T14:20:24.598Z,16.25
2023-03-26T14:23:25.706Z,15.25
2023-03-26T14:26:15.871Z,16.57
2023-03-26T14:29:12.797Z,16.84
2023-03-26T14:31:45.537Z,17.50
2023-03-26T14:35:01.234Z,17.51
2023-03-26T14:37:46.520Z,17.77
2023-03-26T14:40:58.725Z,17.22
2023-03-26T14:44:47.666Z,18.33
2023-03-26T14:47:21.821Z,17.92
2023-03-26T14:50:26.744Z,17.65
2023-03-26T14:53:01.310Z,17.81
2023-03-26T14:56:08.438Z,17.15
2023-03-26T14:59:38.650Z,18.52
2023-03-26T15:05:57.408Z,18.18
2023-03-26T15:09:15.803Z,18.17
2023-03-26T15:12:25.780Z,16.41
2023-03-26T15:15:26.067Z,16.62
2023-03-26T15:18:27.806Z,16.79
2023-03-26T15:21:51.224Z,16.48
2023-03-26T15:24:27.635Z,16.70
2023-03-26T15:27:36.696Z,16.93
2023-03-26T15:30:55.064Z,16.32
2023-03-26T15:34:07.482Z,16.40
2023-03-26T15:37:02.364Z,16.27
2023-03-26T15:39:59.762Z,16.02
2023-03-26T15:43:01.543Z,16.50
2023-03-26T15:45:53.797Z,17.11
2023-03-26T15:48:54.634Z,17.12
2023-03-26T15:52:08.454Z,17.70
2023-03-26T15:55:10.561Z,17.50
2023-03-26T15:57:47.496Z,17.97
2023-03-26T16:00:25.593Z,18.43
2023-03-26T16:03:26.504Z,18.36
2023-03-26T16:06:18.882Z,18.85
2023-03-26T16:09:24.401Z,19.80
2023-03-26T16:12:00.978Z,19.71
2023-03-26T16:15:05.798Z,20.46
2023-03-26T16:18:19.108Z,21.03
2023-03-26T16:21:32.082Z,21.30
2023-03-26T16:24:03.065Z,21.66
2023-03-26T16:27:11.983Z,22.02
2023-03-26T16:30:26.478Z,23.43
2023-03-26T16:33:04.279Z,25.14
2023-03-26T16:36:03.806Z,25.22
2023-03-26T16:39:14.741Z,25.96
2023-03-26T16:41:50.983Z,26.22
2023-03-26T16:44:40.603Z,26.70
2023-03-26T16:47:47.032Z,28.33
2023-03-26T16:50:52.214Z,27.95
2023-03-26T16:53:41.798Z,28.60
2023-03-26T16:56:22.402Z,29.19
2023-03-26T16:58:57.421Z,29.67
2023-03-26T17:01:46.531Z,29.39
2023-03-26T17:04:23.566Z,30.16
2023-03-26T17:07:14.256Z,29.84
2023-03-26T17:10:01.139Z,31.06
2023-03-26T17:12:43.023Z,31.09
2023-03-26T17:15:34.436Z,31.32
2023-03-26T17:18:13.689Z,31.96
2023-03-26T17:21:02.052Z,31.54
2023-03-26T17:24:15.228Z,32.45
2023-03-26T17:27:12.442Z,32.47
2023-03-26T17:30:23.230Z,32.19
2023-03-26T17:33:06.072Z,32.62
2023-03-26T17:35:49.129Z,32.18
2023-03-26T17:38:16.732Z,32.59
2023-03-26T17:40:55.864Z,32.58
2023-03-26T17:43:47.483Z,32.70
2023-03-26T17:46:39.635Z,32.62
2023-03-26T17:49:13.941Z,31.87
2023-03-26T17:51:53.060Z,32.50
2023-03-26T17:54:49.444Z,33.17
2023-03-26T17:57:45.857Z,33.00
2023-03-26T18:00:24.428Z,33.41
2023-03-26T18:03:24.240Z,34.45
2023-03-26T18:05:56.593Z,34.66
2023-03-26T18:09:17.241Z,36.68
2023-03-26T18:12:30.062Z,40.07
2023-03-26T18:15:22.413Z,41.94
2023-03-26T18:18:25.379Z,43.00
2023-03-26T18:20:57.290Z,43.16
2023-03-26T18:23:44.098Z,43.33
2023-03-26T18:26:37.502Z,43.51
2023-03-26T18:29:36.244Z,42.67
2023-03-26T18:32:13.365Z,42.20
2023-03-26T18:34:50.174Z,42.07
2023-03-26T18:37:37.076Z,41.52
2023-03-26T18:40:16.035Z,41.00
2023-03-26T18:42:59.141Z,40.66
2023-03-26T18:45:36.917Z,41.47
2023-03-26T18:48:22.879Z,41.53
2023-03-26T18:51:26.124Z,42.02
2023-03-26T18:53:59.982Z,42.91
2023-03-26T18:56:42.511Z,43.15
2023-03-26T18:59:41.454Z,43.45
2023-03-26T19:02:36.430Z,42.58
2023-03-26T19:05:05.738Z,42.63
2023-03-26T19:07:36.731Z,42.08
2023-03-26T19:10:08.191Z,41.49
2023-03-26T19:12:38.777Z,41.72
2023-03-26T19:15:18.941Z,41.23
2023-03-26T19:17:56.022Z,41.56
2023-03-26T19:21:03.639Z,41.97
2023-03-26T19:23:37.099Z,42.32
2023-03-26T19:26:16.146Z,42.85
2023-03-26T19:29:30.637Z,43.03
2023-03-26T19:32:29.436Z,42.61
2023-03-26T19:35:10.008Z,42.49
2023-03-26T19:37:57.106Z,42.44
2023-03-26T19:40:32.268Z,42.58
2023-03-26T19:43:05.146Z,42.41
2023-03-26T19:45:36.501Z,42.53
2023-03-26T19:48:45.414Z,42.94
2023-03-26T19:51:23.333Z,43.44
2023-03-26T19:54:01.148Z,43.49
2023-03-26T19:56:30.538Z,43.74
2023-03-26T19:58:59.913Z,43.73
2023-03-26T20:01:35.672Z,44.11
2023-03-26T20:04:06.956Z,44.06
2023-03-26T20:06:43.742Z,44.59
2023-03-26T20:09:13.827Z,44.00
2023-03-26T20:11:41.941Z,43.89
2023-03-26T20:14:26.445Z,44.36
2023-03-26T20:16:54.681Z,44.83
2023-03-26T20:19:23.077Z,45.06
2023-03-26T20:21:56.895Z,44.31
2023-03-26T20:24:27.379Z,43.54
2023-03-26T20:26:56.042Z,44.00
2023-03-26T20:29:23.724Z,43.62
2023-03-26T20:31:51.319Z,44.27
2023-03-26T20:34:25.609Z,44.65
2023-03-26T20:37:01.396Z,45.08
2023-03-26T20:39:30.104Z,45.78
2023-03-26T20:41:58.954Z,45.89
2023-03-26T20:44:28.258Z,45.42
2023-03-26T20:46:57.341Z,45.42
2023-03-26T20:49:25.084Z,45.35
2023-03-26T20:51:52.776Z,45.91
2023-03-26T20:54:25.238Z,45.36
2023-03-26T20:56:54.719Z,44.92
2023-03-26T20:59:29.554Z,45.36
2023-03-26T21:01:59.486Z,45.40
2023-03-26T21:04:29.917Z,45.23
2023-03-26T21:07:07.001Z,45.99
2023-03-26T21:09:39.884Z,47.00
2023-03-26T21:12:43.357Z,48.80
2023-03-26T21:15:22.514Z,48.55
2023-03-26T21:17:53.098Z,48.18
2023-03-26T21:20:24.974Z,49.30
2023-03-26T21:23:23.182Z,48.49
2023-03-26T21:26:17.987Z,49.45
2023-03-26T21:28:49.882Z,49.92
2023-03-26T21:31:24.645Z,50.03
2023-03-26T21:33:52.731Z,49.30
2023-03-26T21:36:21.330Z,50.73
2023-03-26T21:38:50.546Z,51.14
2023-03-26T21:41:23.637Z,50.91
2023-03-26T21:43:52.041Z,50.50
2023-03-26T21:46:19.994Z,49.99
2023-03-26T21:48:47.899Z,49.87
2023-03-26T21:51:19.553Z,50.46
2023-03-26T21:53:48.997Z,50.22
2023-03-26T21:56:41.872Z,50.94
2023-03-26T21:59:27.073Z,51.19
2023-03-26T22:02:11.432Z,51.16
2023-03-26T22:05:22.789Z,51.40
2023-03-26T22:07:57.425Z,52.35
2023-03-26T22:10:27.039Z,52.46
2023-03-26T22:12:54.834Z,52.62
2023-03-26T22:15:22.673Z,52.51
2023-03-26T22:17:54.147Z,52.10
2023-03-26T22:20:25.299Z,51.68
2023-03-26T22:22:53.514Z,51.94
2023-03-26T22:25:23.244Z,51.71
2023-03-26T22:27:52.845Z,51.53
2023-03-26T22:30:22.049Z,52.03
2023-03-26T22:32:50.345Z,51.33
2023-03-26T22:35:18.128Z,50.99
2023-03-26T22:37:46.141Z,50.66
2023-03-26T22:40:13.837Z,49.34
2023-03-26T22:42:41.904Z,48.44
2023-03-26T22:45:11.535Z,48.53
2023-03-26T22:47:40.460Z,47.40
2023-03-26T22:50:09.612Z,48.61
2023-03-26T22:52:38.981Z,47.30
2023-03-26T22:55:07.973Z,48.51
2023-03-26T22:57:35.509Z,48.85
2023-03-26T23:00:22.150Z,48.86
2023-03-26T23:02:49.993Z,48.93
2023-03-26T23:05:18.296Z,48.68
2023-03-26T23:07:46.673Z,48.57
2023-03-26T23:10:16.565Z,49.79
2023-03-26T23:12:44.004Z,49.88
2023-03-26T23:15:12.005Z,49.69
2023-03-26T23:17:39.819Z,49.64
2023-03-26T23:20:15.513Z,49.26
2023-03-26T23:22:44.107Z,49.06
2023-03-26T23:25:12.666Z,48.91
2023-03-26T23:27:41.484Z,48.91
2023-03-26T23:30:10.937Z,48.75
2023-03-26T23:32:38.757Z,48.66
2023-03-26T23:35:07.098Z,49.03
2023-03-26T23:37:35.997Z,48.45
2023-03-26T23:40:10.287Z,48.51
2023-03-26T23:42:38.567Z,48.02
2023-03-26T23:45:09.009Z,47.92
2023-03-26T23:47:37.392Z,47.59
2023-03-26T23:50:06.661Z,49.33
2023-03-26T23:52:34.157Z,50.60
2023-03-26T23:55:02.113Z,51.52
2023-03-26T23:57:30.577Z,52.30
2023-03-26T23:59:58.459Z,53.25
